sensor_id;sensor_type;location;lat;lon;timestamp;pressure;altitude;pressure_sealevel;temperature;humidity
61554;BME280;47425;51.976;5.326;2023-04-27T00:01:51;101992.00;;;8.11;51.29
61554;BME280;47425;51.976;5.326;2023-04-27T00:04:18;101989.34;;;8.04;51.26
61554;BME280;47425;51.976;5.326;2023-04-27T00:06:45;101983.16;;;7.95;51.55
61554;BME280;47425;51.976;5.326;2023-04-27T00:09:11;101989.19;;;7.87;51.73
61554;BME280;47425;51.976;5.326;2023-04-27T00:11:38;101984.81;;;7.83;51.83
61554;BME280;47425;51.976;5.326;2023-04-27T00:14:07;101990.88;;;7.84;51.88
61554;BME280;47425;51.976;5.326;2023-04-27T00:16:33;101987.44;;;7.85;51.77
61554;BME280;47425;51.976;5.326;2023-04-27T00:18:59;101987.47;;;7.89;51.68
61554;BME280;47425;51.976;5.326;2023-04-27T00:21:26;101986.56;;;7.86;51.76
61554;BME280;47425;51.976;5.326;2023-04-27T00:23:53;101990.88;;;7.84;51.57
61554;BME280;47425;51.976;5.326;2023-04-27T00:26:20;101985.72;;;7.88;51.66
61554;BME280;47425;51.976;5.326;2023-04-27T00:28:49;101991.88;;;7.95;51.69
61554;BME280;47425;51.976;5.326;2023-04-27T00:31:25;101983.22;;;7.99;51.62
61554;BME280;47425;51.976;5.326;2023-04-27T00:33:52;101988.44;;;7.98;51.51
61554;BME280;47425;51.976;5.326;2023-04-27T00:36:18;101987.53;;;7.97;51.43
61554;BME280;47425;51.976;5.326;2023-04-27T00:38:46;101988.44;;;7.98;51.33
61554;BME280;47425;51.976;5.326;2023-04-27T00:41:14;101980.56;;;7.96;51.49
61554;BME280;47425;51.976;5.326;2023-04-27T00:43:41;101984.00;;;7.89;51.37
61554;BME280;47425;51.976;5.326;2023-04-27T00:46:08;101978.69;;;7.80;51.44
61554;BME280;47425;51.976;5.326;2023-04-27T00:48:37;101989.94;;;7.77;51.46
61554;BME280;47425;51.976;5.326;2023-04-27T00:51:04;101980.34;;;7.70;51.58
61554;BME280;47425;51.976;5.326;2023-04-27T00:53:32;101984.66;;;7.68;51.69
61554;BME280;47425;51.976;5.326;2023-04-27T00:55:59;101980.34;;;7.71;51.77
61554;BME280;47425;51.976;5.326;2023-04-27T00:58:27;101973.44;;;7.77;51.47
61554;BME280;47425;51.976;5.326;2023-04-27T01:00:54;101975.28;;;7.87;52.00
61554;BME280;47425;51.976;5.326;2023-04-27T01:03:21;101966.72;;;8.02;51.89
61554;BME280;47425;51.976;5.326;2023-04-27T01:05:50;101971.16;;;8.14;51.43
61554;BME280;47425;51.976;5.326;2023-04-27T01:08:16;101961.53;;;8.05;51.30
61554;BME280;47425;51.976;5.326;2023-04-27T01:10:43;101960.63;;;8.03;51.44
61554;BME280;47425;51.976;5.326;2023-04-27T01:13:09;101957.22;;;8.10;51.50
61554;BME280;47425;51.976;5.326;2023-04-27T01:15:37;101965.03;;;8.07;51.18
61554;BME280;47425;51.976;5.326;2023-04-27T01:18:08;101965.75;;;7.92;51.39
61554;BME280;47425;51.976;5.326;2023-04-27T01:20:34;101970.00;;;7.78;51.59
61554;BME280;47425;51.976;5.326;2023-04-27T01:23:04;101962.91;;;7.64;51.70
61554;BME280;47425;51.976;5.326;2023-04-27T01:25:51;101975.09;;;7.67;52.18
61554;BME280;47425;51.976;5.326;2023-04-27T01:28:19;101982.09;;;7.72;51.88
61554;BME280;47425;51.976;5.326;2023-04-27T01:30:45;101976.88;;;7.72;51.94
61554;BME280;47425;51.976;5.326;2023-04-27T01:33:12;101984.69;;;7.71;51.96
61554;BME280;47425;51.976;5.326;2023-04-27T01:35:39;101975.94;;;7.66;51.63
61554;BME280;47425;51.976;5.326;2023-04-27T01:38:06;101965.44;;;7.60;51.72
61554;BME280;47425;51.976;5.326;2023-04-27T01:40:32;101965.41;;;7.53;52.05
61554;BME280;47425;51.976;5.326;2023-04-27T01:43:01;101956.66;;;7.47;52.07
61554;BME280;47425;51.976;5.326;2023-04-27T01:45:28;101961.88;;;7.47;52.18
61554;BME280;47425;51.976;5.326;2023-04-27T01:47:58;101956.69;;;7.50;52.36
61554;BME280;47425;51.976;5.326;2023-04-27T01:50:24;101954.06;;;7.50;52.09
61554;BME280;47425;51.976;5.326;2023-04-27T01:52:52;101955.75;;;7.45;52.10
61554;BME280;47425;51.976;5.326;2023-04-27T01:55:20;101947.06;;;7.43;52.18
61554;BME280;47425;51.976;5.326;2023-04-27T01:57:46;101947.84;;;7.38;52.35
61554;BME280;47425;51.976;5.326;2023-04-27T02:00:15;101953.94;;;7.36;52.33
61554;BME280;47425;51.976;5.326;2023-04-27T02:02:50;101953.06;;;7.37;52.49
61554;BME280;47425;51.976;5.326;2023-04-27T02:05:17;101961.66;;;7.30;52.34
61554;BME280;47425;51.976;5.326;2023-04-27T02:07:45;101952.94;;;7.26;52.60
61554;BME280;47425;51.976;5.326;2023-04-27T02:10:13;101958.13;;;7.23;52.70
61554;BME280;47425;51.976;5.326;2023-04-27T02:12:40;101953.72;;;7.19;52.56
61554;BME280;47425;51.976;5.326;2023-04-27T02:15:07;101956.25;;;7.14;53.03
61554;BME280;47425;51.976;5.326;2023-04-27T02:17:35;101958.88;;;7.14;52.91
61554;BME280;47425;51.976;5.326;2023-04-27T02:20:04;101963.22;;;7.14;52.84
61554;BME280;47425;51.976;5.326;2023-04-27T02:22:30;101956.34;;;7.20;53.17
61554;BME280;47425;51.976;5.326;2023-04-27T02:24:58;101957.38;;;7.33;53.00
61554;BME280;47425;51.976;5.326;2023-04-27T02:27:25;101959.06;;;7.31;52.67
61554;BME280;47425;51.976;5.326;2023-04-27T02:30:07;101955.50;;;7.21;52.80
61554;BME280;47425;51.976;5.326;2023-04-27T02:32:35;101946.75;;;7.18;52.95
61554;BME280;47425;51.976;5.326;2023-04-27T02:35:03;101951.16;;;7.22;52.96
61554;BME280;47425;51.976;5.326;2023-04-27T02:37:31;101951.25;;;7.31;53.20
61554;BME280;47425;51.976;5.326;2023-04-27T02:39:57;101947.84;;;7.37;52.79
61554;BME280;47425;51.976;5.326;2023-04-27T02:42:24;101940.84;;;7.33;52.69
61554;BME280;47425;51.976;5.326;2023-04-27T02:44:50;101946.03;;;7.28;52.67
61554;BME280;47425;51.976;5.326;2023-04-27T02:47:18;101945.09;;;7.25;52.61
61554;BME280;47425;51.976;5.326;2023-04-27T02:49:46;101938.19;;;7.27;52.89
61554;BME280;47425;51.976;5.326;2023-04-27T02:52:12;101936.44;;;7.24;52.78
61554;BME280;47425;51.976;5.326;2023-04-27T02:54:39;101939.03;;;7.24;52.86
61554;BME280;47425;51.976;5.326;2023-04-27T02:57:06;101944.16;;;7.19;52.64
61554;BME280;47425;51.976;5.326;2023-04-27T02:59:33;101942.50;;;7.26;53.37
61554;BME280;47425;51.976;5.326;2023-04-27T03:01:59;101944.41;;;7.39;52.79
61554;BME280;47425;51.976;5.326;2023-04-27T03:04:27;101946.03;;;7.31;52.57
61554;BME280;47425;51.976;5.326;2023-04-27T03:06:55;101940.94;;;7.41;53.39
61554;BME280;47425;51.976;5.326;2023-04-27T03:09:21;101935.91;;;7.59;53.20
61554;BME280;47425;51.976;5.326;2023-04-27T03:11:48;101945.59;;;7.72;52.92
61554;BME280;47425;51.976;5.326;2023-04-27T03:14:16;101945.53;;;7.68;52.14
61554;BME280;47425;51.976;5.326;2023-04-27T03:16:42;101946.34;;;7.59;52.39
61554;BME280;47425;51.976;5.326;2023-04-27T03:19:11;101947.22;;;7.61;52.50
61554;BME280;47425;51.976;5.326;2023-04-27T03:21:39;101955.03;;;7.60;52.19
61554;BME280;47425;51.976;5.326;2023-04-27T03:24:08;101947.06;;;7.44;52.45
61554;BME280;47425;51.976;5.326;2023-04-27T03:26:35;101949.50;;;7.32;52.69
61554;BME280;47425;51.976;5.326;2023-04-27T03:29:02;101949.69;;;7.46;53.31
61554;BME280;47425;51.976;5.326;2023-04-27T03:31:30;101943.84;;;7.73;53.46
61554;BME280;47425;51.976;5.326;2023-04-27T03:33:56;101951.75;;;7.81;52.20
61554;BME280;47425;51.976;5.326;2023-04-27T03:36:23;101949.03;;;7.70;52.29
61554;BME280;47425;51.976;5.326;2023-04-27T03:38:50;101942.09;;;7.69;52.32
61554;BME280;47425;51.976;5.326;2023-04-27T03:41:20;101952.59;;;7.80;52.55
61554;BME280;47425;51.976;5.326;2023-04-27T03:43:46;101948.31;;;7.85;52.02
61554;BME280;47425;51.976;5.326;2023-04-27T03:46:13;101949.91;;;7.69;51.95
61554;BME280;47425;51.976;5.326;2023-04-27T03:48:40;101944.66;;;7.64;52.38
61554;BME280;47425;51.976;5.326;2023-04-27T03:51:08;101945.53;;;7.66;52.33
61554;BME280;47425;51.976;5.326;2023-04-27T03:53:35;101942.78;;;7.52;52.12
61554;BME280;47425;51.976;5.326;2023-04-27T03:56:01;101946.22;;;7.47;52.54
61554;BME280;47425;51.976;5.326;2023-04-27T03:58:31;101949.69;;;7.46;52.47
61554;BME280;47425;51.976;5.326;2023-04-27T04:01:24;101949.50;;;7.32;52.24
61554;BME280;47425;51.976;5.326;2023-04-27T04:03:50;101953.72;;;7.16;52.22
61554;BME280;47425;51.976;5.326;2023-04-27T04:06:17;101957.16;;;7.13;52.56
61554;BME280;47425;51.976;5.326;2023-04-27T04:08:44;101963.13;;;7.06;52.90
61554;BME280;47425;51.976;5.326;2023-04-27T04:11:11;101961.53;;;7.19;53.14
61554;BME280;47425;51.976;5.326;2023-04-27T04:13:39;101959.97;;;7.33;53.32
61554;BME280;47425;51.976;5.326;2023-04-27T04:16:07;101964.38;;;7.41;52.30
61554;BME280;47425;51.976;5.326;2023-04-27T04:18:35;101965.22;;;7.38;52.80
61554;BME280;47425;51.976;5.326;2023-04-27T04:21:03;101950.50;;;7.42;52.52
61554;BME280;47425;51.976;5.326;2023-04-27T04:23:30;101959.09;;;7.34;52.59
61554;BME280;47425;51.976;5.326;2023-04-27T04:25:58;101956.59;;;7.44;52.78
61554;BME280;47425;51.976;5.326;2023-04-27T04:28:30;101966.16;;;7.42;53.04
61554;BME280;47425;51.976;5.326;2023-04-27T04:30:59;101967.94;;;7.49;53.11
61554;BME280;47425;51.976;5.326;2023-04-27T04:33:25;101972.28;;;7.47;52.81
61554;BME280;47425;51.976;5.326;2023-04-27T04:35:54;101978.22;;;7.33;52.75
61554;BME280;47425;51.976;5.326;2023-04-27T04:38:21;101974.59;;;7.22;52.80
61554;BME280;47425;51.976;5.326;2023-04-27T04:40:48;101970.22;;;7.19;53.04
61554;BME280;47425;51.976;5.326;2023-04-27T04:43:16;101978.13;;;7.26;52.79
61554;BME280;47425;51.976;5.326;2023-04-27T04:45:45;101980.00;;;7.36;53.05
61554;BME280;47425;51.976;5.326;2023-04-27T04:48:14;101975.06;;;7.64;52.89
61554;BME280;47425;51.976;5.326;2023-04-27T04:50:40;101990.09;;;7.91;52.35
61554;BME280;47425;51.976;5.326;2023-04-27T04:53:17;101982.47;;;8.17;52.29
61554;BME280;47425;51.976;5.326;2023-04-27T04:55:45;101980.94;;;8.43;51.83
61554;BME280;47425;51.976;5.326;2023-04-27T04:58:11;101987.16;;;8.60;52.08
61554;BME280;47425;51.976;5.326;2023-04-27T05:00:38;101989.09;;;8.89;51.50
61554;BME280;47425;51.976;5.326;2023-04-27T05:03:05;101980.44;;;9.09;51.13
61554;BME280;47425;51.976;5.326;2023-04-27T05:05:33;101988.38;;;9.30;50.51
61554;BME280;47425;51.976;5.326;2023-04-27T05:08:00;101993.59;;;9.24;50.10
61554;BME280;47425;51.976;5.326;2023-04-27T05:10:26;101992.66;;;9.14;50.38
61554;BME280;47425;51.976;5.326;2023-04-27T05:12:54;101990.94;;;9.16;50.73
61554;BME280;47425;51.976;5.326;2023-04-27T05:15:20;101991.91;;;9.43;51.33
61554;BME280;47425;51.976;5.326;2023-04-27T05:17:49;101991.97;;;9.72;50.88
61554;BME280;47425;51.976;5.326;2023-04-27T05:20:15;101995.47;;;9.90;51.06
61554;BME280;47425;51.976;5.326;2023-04-27T05:22:58;101986.75;;;10.16;50.96
61554;BME280;47425;51.976;5.326;2023-04-27T05:25:25;101998.09;;;10.15;50.52
61554;BME280;47425;51.976;5.326;2023-04-27T05:27:51;101989.41;;;10.37;50.70
61554;BME280;47425;51.976;5.326;2023-04-27T05:30:19;101989.41;;;10.45;49.91
61554;BME280;47425;51.976;5.326;2023-04-27T05:32:46;101992.03;;;10.42;49.92
61554;BME280;47425;51.976;5.326;2023-04-27T05:35:12;101999.88;;;10.53;50.69
61554;BME280;47425;51.976;5.326;2023-04-27T05:37:40;101998.03;;;10.90;50.37
61554;BME280;47425;51.976;5.326;2023-04-27T05:40:08;102015.38;;;11.19;49.67
61554;BME280;47425;51.976;5.326;2023-04-27T05:42:35;102008.34;;;11.32;49.10
61554;BME280;47425;51.976;5.326;2023-04-27T05:45:01;102003.91;;;11.42;48.90
61554;BME280;47425;51.976;5.326;2023-04-27T05:47:29;101997.69;;;11.62;49.08
61554;BME280;47425;51.976;5.326;2023-04-27T05:49:55;101994.94;;;11.83;48.44
61554;BME280;47425;51.976;5.326;2023-04-27T05:52:22;101994.13;;;11.75;47.95
61554;BME280;47425;51.976;5.326;2023-04-27T05:54:53;101993.22;;;11.74;48.05
61554;BME280;47425;51.976;5.326;2023-04-27T05:57:23;101995.75;;;11.90;47.96
61554;BME280;47425;51.976;5.326;2023-04-27T05:59:50;101993.16;;;11.88;47.94
61554;BME280;47425;51.976;5.326;2023-04-27T06:02:16;101991.41;;;11.83;47.36
61554;BME280;47425;51.976;5.326;2023-04-27T06:04:43;101988.91;;;11.64;47.25
61554;BME280;47425;51.976;5.326;2023-04-27T06:07:12;101994.28;;;11.47;47.93
61554;BME280;47425;51.976;5.326;2023-04-27T06:09:39;101995.06;;;11.60;47.95
61554;BME280;47425;51.976;5.326;2023-04-27T06:12:07;101996.84;;;11.58;47.20
61554;BME280;47425;51.976;5.326;2023-04-27T06:14:35;101996.13;;;11.30;46.71
61554;BME280;47425;51.976;5.326;2023-04-27T06:17:02;101999.66;;;11.24;48.24
61554;BME280;47425;51.976;5.326;2023-04-27T06:19:28;102004.84;;;11.30;47.23
61554;BME280;47425;51.976;5.326;2023-04-27T06:21:55;102002.19;;;11.38;47.88
61554;BME280;47425;51.976;5.326;2023-04-27T06:24:23;102009.16;;;11.48;47.60
61554;BME280;47425;51.976;5.326;2023-04-27T06:26:52;102008.03;;;11.86;48.36
61554;BME280;47425;51.976;5.326;2023-04-27T06:29:19;102000.94;;;12.02;47.41
61554;BME280;47425;51.976;5.326;2023-04-27T06:31:48;102011.31;;;12.16;47.25
61554;BME280;47425;51.976;5.326;2023-04-27T06:34:15;102010.50;;;12.09;45.94
61554;BME280;47425;51.976;5.326;2023-04-27T06:36:41;102006.25;;;11.90;46.45
61554;BME280;47425;51.976;5.326;2023-04-27T06:39:08;102006.13;;;12.12;47.69
61554;BME280;47425;51.976;5.326;2023-04-27T06:41:35;102003.13;;;12.53;46.77
61554;BME280;47425;51.976;5.326;2023-04-27T06:44:02;102003.09;;;12.55;46.35
61554;BME280;47425;51.976;5.326;2023-04-27T06:46:30;102004.78;;;12.64;45.59
61554;BME280;47425;51.976;5.326;2023-04-27T06:48:58;102005.59;;;12.70;45.90
61554;BME280;47425;51.976;5.326;2023-04-27T06:51:26;102008.22;;;12.67;45.47
61554;BME280;47425;51.976;5.326;2023-04-27T06:53:53;102008.19;;;12.69;45.14
61554;BME280;47425;51.976;5.326;2023-04-27T06:56:21;102001.31;;;12.55;45.48
61554;BME280;47425;51.976;5.326;2023-04-27T06:58:48;102001.44;;;12.45;45.61
61554;BME280;47425;51.976;5.326;2023-04-27T07:01:15;102004.84;;;12.56;46.42
61554;BME280;47425;51.976;5.326;2023-04-27T07:03:41;101996.78;;;12.74;45.32
61554;BME280;47425;51.976;5.326;2023-04-27T07:06:09;101999.34;;;12.79;44.08
61554;BME280;47425;51.976;5.326;2023-04-27T07:08:37;102002.00;;;12.76;44.81
61554;BME280;47425;51.976;5.326;2023-04-27T07:11:03;102015.97;;;12.81;45.11
61554;BME280;47425;51.976;5.326;2023-04-27T07:13:29;102012.44;;;12.84;45.28
61554;BME280;47425;51.976;5.326;2023-04-27T07:15:56;102010.75;;;12.76;43.98
61554;BME280;47425;51.976;5.326;2023-04-27T07:18:24;102016.06;;;12.72;44.36
61554;BME280;47425;51.976;5.326;2023-04-27T07:20:52;102009.00;;;12.79;44.56
61554;BME280;47425;51.976;5.326;2023-04-27T07:23:20;102015.81;;;12.95;43.62
61554;BME280;47425;51.976;5.326;2023-04-27T07:25:47;102010.38;;;13.12;44.42
61554;BME280;47425;51.976;5.326;2023-04-27T07:28:14;102019.41;;;13.59;44.82
61554;BME280;47425;51.976;5.326;2023-04-27T07:30:40;102014.53;;;13.94;42.70
61554;BME280;47425;51.976;5.326;2023-04-27T07:33:07;102006.38;;;14.08;43.39
61554;BME280;47425;51.976;5.326;2023-04-27T07:35:35;102005.03;;;14.37;42.37
61554;BME280;47425;51.976;5.326;2023-04-27T07:38:02;102005.78;;;14.43;42.96
61554;BME280;47425;51.976;5.326;2023-04-27T07:40:30;102006.75;;;14.38;40.78
61554;BME280;47425;51.976;5.326;2023-04-27T07:42:56;102003.66;;;14.14;41.69
61554;BME280;47425;51.976;5.326;2023-04-27T07:45:25;101998.22;;;14.25;41.18
61554;BME280;47425;51.976;5.326;2023-04-27T07:47:57;102000.84;;;14.25;40.86
61554;BME280;47425;51.976;5.326;2023-04-27T07:50:24;102004.75;;;14.01;40.99
61554;BME280;47425;51.976;5.326;2023-04-27T07:52:52;102008.00;;;14.15;40.32
61554;BME280;47425;51.976;5.326;2023-04-27T07:55:19;102016.50;;;14.34;42.57
61554;BME280;47425;51.976;5.326;2023-04-27T07:57:49;102011.47;;;14.70;42.86
61554;BME280;47425;51.976;5.326;2023-04-27T08:00:15;102023.19;;;15.01;42.03
61554;BME280;47425;51.976;5.326;2023-04-27T08:02:43;102016.59;;;15.23;40.88
61554;BME280;47425;51.976;5.326;2023-04-27T08:05:10;102017.63;;;15.15;40.66
61554;BME280;47425;51.976;5.326;2023-04-27T08:07:36;102024.16;;;15.39;42.04
61554;BME280;47425;51.976;5.326;2023-04-27T08:10:05;102017.19;;;15.75;42.07
61554;BME280;47425;51.976;5.326;2023-04-27T08:12:31;102021.78;;;16.06;42.30
61554;BME280;47425;51.976;5.326;2023-04-27T08:14:59;102016.75;;;16.32;39.80
61554;BME280;47425;51.976;5.326;2023-04-27T08:17:26;102023.88;;;16.28;39.58
61554;BME280;47425;51.976;5.326;2023-04-27T08:19:53;102028.44;;;15.85;39.97
61554;BME280;47425;51.976;5.326;2023-04-27T08:22:20;102021.31;;;15.89;42.62
61554;BME280;47425;51.976;5.326;2023-04-27T08:24:46;102033.25;;;16.05;44.47
61554;BME280;47425;51.976;5.326;2023-04-27T08:27:14;102020.94;;;16.40;45.20
61554;BME280;47425;51.976;5.326;2023-04-27T08:29:43;102008.72;;;16.69;44.69
61554;BME280;47425;51.976;5.326;2023-04-27T08:32:12;102016.13;;;16.89;42.92
61554;BME280;47425;51.976;5.326;2023-04-27T08:34:40;102011.88;;;16.82;42.35
61554;BME280;47425;51.976;5.326;2023-04-27T08:37:08;102009.53;;;16.71;41.93
61554;BME280;47425;51.976;5.326;2023-04-27T08:39:35;102003.53;;;16.65;41.61
61554;BME280;47425;51.976;5.326;2023-04-27T08:42:08;102011.09;;;16.78;42.54
61554;BME280;47425;51.976;5.326;2023-04-27T08:44:37;102014.00;;;16.69;41.81
61554;BME280;47425;51.976;5.326;2023-04-27T08:47:04;102008.44;;;16.46;40.83
61554;BME280;47425;51.976;5.326;2023-04-27T08:49:32;101997.44;;;16.61;43.45
61554;BME280;47425;51.976;5.326;2023-04-27T08:51:58;102002.38;;;16.75;41.56
61554;BME280;47425;51.976;5.326;2023-04-27T08:54:26;102001.63;;;16.70;42.62
61554;BME280;47425;51.976;5.326;2023-04-27T08:56:53;102000.13;;;16.59;41.29
61554;BME280;47425;51.976;5.326;2023-04-27T08:59:19;102009.44;;;16.74;41.62
61554;BME280;47425;51.976;5.326;2023-04-27T09:01:47;102008.13;;;16.58;40.45
61554;BME280;47425;51.976;5.326;2023-04-27T09:04:13;102014.84;;;16.70;42.01
61554;BME280;47425;51.976;5.326;2023-04-27T09:06:42;102002.69;;;16.64;37.89
61554;BME280;47425;51.976;5.326;2023-04-27T09:09:08;102002.38;;;16.42;39.88
61554;BME280;47425;51.976;5.326;2023-04-27T09:11:37;102006.28;;;16.27;41.68
61554;BME280;47425;51.976;5.326;2023-04-27T09:14:14;102003.88;;;16.18;38.25
61554;BME280;47425;51.976;5.326;2023-04-27T09:16:41;102005.03;;;16.07;39.64
61554;BME280;47425;51.976;5.326;2023-04-27T09:19:07;102008.88;;;15.94;41.95
61554;BME280;47425;51.976;5.326;2023-04-27T09:21:35;102002.56;;;16.34;42.98
61554;BME280;47425;51.976;5.326;2023-04-27T09:24:09;101998.50;;;16.55;40.59
61554;BME280;47425;51.976;5.326;2023-04-27T09:26:36;101998.94;;;16.71;42.28
61554;BME280;47425;51.976;5.326;2023-04-27T09:29:02;102004.13;;;16.76;40.41
61554;BME280;47425;51.976;5.326;2023-04-27T09:31:30;101994.13;;;16.86;41.48
61554;BME280;47425;51.976;5.326;2023-04-27T09:33:57;101992.84;;;16.68;37.33
61554;BME280;47425;51.976;5.326;2023-04-27T09:36:23;102000.06;;;16.30;37.42
61554;BME280;47425;51.976;5.326;2023-04-27T09:38:51;101996.13;;;16.12;39.43
61554;BME280;47425;51.976;5.326;2023-04-27T09:41:19;101992.50;;;16.16;39.87
61554;BME280;47425;51.976;5.326;2023-04-27T09:43:47;101991.03;;;16.38;41.65
61554;BME280;47425;51.976;5.326;2023-04-27T09:46:13;101992.50;;;16.49;38.70
61554;BME280;47425;51.976;5.326;2023-04-27T09:48:41;101994.56;;;16.37;39.56
61554;BME280;47425;51.976;5.326;2023-04-27T09:51:07;101986.06;;;15.90;35.86
61554;BME280;47425;51.976;5.326;2023-04-27T09:53:35;101989.31;;;16.01;40.18
61554;BME280;47425;51.976;5.326;2023-04-27T09:56:09;101975.69;;;16.17;39.50
61554;BME280;47425;51.976;5.326;2023-04-27T09:58:49;101974.28;;;16.38;40.04
61554;BME280;47425;51.976;5.326;2023-04-27T10:01:24;101989.06;;;16.78;41.82
61554;BME280;47425;51.976;5.326;2023-04-27T10:03:57;101981.84;;;17.16;41.35
61554;BME280;47425;51.976;5.326;2023-04-27T10:06:50;101988.78;;;17.20;38.30
61554;BME280;47425;51.976;5.326;2023-04-27T10:09:21;101985.81;;;17.31;36.63
61554;BME280;47425;51.976;5.326;2023-04-27T10:11:49;101994.78;;;17.25;37.92
61554;BME280;47425;51.976;5.326;2023-04-27T10:14:46;101986.72;;;17.00;36.99
61554;BME280;47425;51.976;5.326;2023-04-27T10:17:13;101980.41;;;17.04;39.28
61554;BME280;47425;51.976;5.326;2023-04-27T10:19:39;101985.13;;;17.24;39.58
61554;BME280;47425;51.976;5.326;2023-04-27T10:22:05;101984.59;;;17.11;35.35
61554;BME280;47425;51.976;5.326;2023-04-27T10:24:33;101979.63;;;16.69;33.26
61554;BME280;47425;51.976;5.326;2023-04-27T10:27:02;101984.78;;;16.06;31.84
61554;BME280;47425;51.976;5.326;2023-04-27T10:29:37;101982.16;;;15.30;33.27
61554;BME280;47425;51.976;5.326;2023-04-27T10:32:05;101976.78;;;14.92;33.23
61554;BME280;47425;51.976;5.326;2023-04-27T10:34:33;101981.41;;;15.23;40.12
61554;BME280;47425;51.976;5.326;2023-04-27T10:37:03;101981.66;;;15.90;40.33
61554;BME280;47425;51.976;5.326;2023-04-27T10:39:33;101981.41;;;16.34;40.40
61554;BME280;47425;51.976;5.326;2023-04-27T10:42:01;101977.81;;;16.38;35.62
61554;BME280;47425;51.976;5.326;2023-04-27T10:44:28;101976.41;;;16.25;34.81
61554;BME280;47425;51.976;5.326;2023-04-27T10:46:56;101983.56;;;16.20;36.73
61554;BME280;47425;51.976;5.326;2023-04-27T10:49:26;101979.41;;;16.44;36.32
61554;BME280;47425;51.976;5.326;2023-04-27T10:51:52;101971.78;;;16.65;36.52
61554;BME280;47425;51.976;5.326;2023-04-27T10:54:19;101980.00;;;16.87;40.74
61554;BME280;47425;51.976;5.326;2023-04-27T10:56:46;101976.25;;;17.25;38.40
61554;BME280;47425;51.976;5.326;2023-04-27T10:59:13;101972.59;;;17.30;37.77
61554;BME280;47425;51.976;5.326;2023-04-27T11:01:39;101972.56;;;17.31;34.77
61554;BME280;47425;51.976;5.326;2023-04-27T11:04:07;101974.66;;;16.88;37.71
61554;BME280;47425;51.976;5.326;2023-04-27T11:06:40;101965.03;;;16.86;33.86
61554;BME280;47425;51.976;5.326;2023-04-27T11:09:08;101958.25;;;16.75;36.74
61554;BME280;47425;51.976;5.326;2023-04-27T11:11:35;101960.41;;;16.94;38.83
61554;BME280;47425;51.976;5.326;2023-04-27T11:14:02;101948.72;;;17.31;40.27
61554;BME280;47425;51.976;5.326;2023-04-27T11:16:30;101946.38;;;17.50;36.91
61554;BME280;47425;51.976;5.326;2023-04-27T11:18:57;101942.81;;;17.51;38.46
61554;BME280;47425;51.976;5.326;2023-04-27T11:21:30;101941.34;;;17.13;31.88
61554;BME280;47425;51.976;5.326;2023-04-27T11:24:02;101932.63;;;16.46;32.66
61554;BME280;47425;51.976;5.326;2023-04-27T11:26:32;101927.47;;;16.73;38.94
61554;BME280;47425;51.976;5.326;2023-04-27T11:29:00;101928.09;;;16.83;33.39
61554;BME280;47425;51.976;5.326;2023-04-27T11:31:37;101918.72;;;16.39;34.47
61554;BME280;47425;51.976;5.326;2023-04-27T11:34:05;101921.00;;;15.87;35.33
61554;BME280;47425;51.976;5.326;2023-04-27T11:36:32;101913.50;;;16.05;36.25
61554;BME280;47425;51.976;5.326;2023-04-27T11:38:59;101917.97;;;16.34;38.46
61554;BME280;47425;51.976;5.326;2023-04-27T11:41:31;101916.72;;;16.79;39.89
61554;BME280;47425;51.976;5.326;2023-04-27T11:44:02;101917.09;;;17.26;40.56
61554;BME280;47425;51.976;5.326;2023-04-27T11:46:31;101917.91;;;17.57;37.61
61554;BME280;47425;51.976;5.326;2023-04-27T11:48:59;101912.09;;;17.72;34.97
61554;BME280;47425;51.976;5.326;2023-04-27T11:51:28;101913.91;;;17.43;37.13
61554;BME280;47425;51.976;5.326;2023-04-27T11:53:59;101916.47;;;17.47;35.92
61554;BME280;47425;51.976;5.326;2023-04-27T11:56:32;101918.41;;;17.68;35.51
61554;BME280;47425;51.976;5.326;2023-04-27T11:58:58;101915.88;;;17.65;36.77
61554;BME280;47425;51.976;5.326;2023-04-27T12:01:26;101913.19;;;17.38;35.00
61554;BME280;47425;51.976;5.326;2023-04-27T12:03:53;101907.91;;;17.38;36.62
61554;BME280;47425;51.976;5.326;2023-04-27T12:06:22;101906.22;;;17.63;37.04
61554;BME280;47425;51.976;5.326;2023-04-27T12:08:49;101905.56;;;17.83;35.64
61554;BME280;47425;51.976;5.326;2023-04-27T12:11:17;101911.03;;;17.78;34.98
61554;BME280;47425;51.976;5.326;2023-04-27T12:13:44;101908.31;;;17.80;36.28
61554;BME280;47425;51.976;5.326;2023-04-27T12:16:11;101914.72;;;17.72;37.47
61554;BME280;47425;51.976;5.326;2023-04-27T12:18:39;101908.72;;;17.96;37.54
61554;BME280;47425;51.976;5.326;2023-04-27T12:21:05;101907.06;;;18.17;36.61
61554;BME280;47425;51.976;5.326;2023-04-27T12:23:32;101911.03;;;18.05;37.18
61554;BME280;47425;51.976;5.326;2023-04-27T12:25:58;101900.78;;;17.94;35.75
61554;BME280;47425;51.976;5.326;2023-04-27T12:31:11;101897.38;;;17.64;32.65
61554;BME280;47425;51.976;5.326;2023-04-27T12:33:38;101892.44;;;17.53;31.92
61554;BME280;47425;51.976;5.326;2023-04-27T12:36:05;101893.53;;;17.45;32.80
61554;BME280;47425;51.976;5.326;2023-04-27T12:38:32;101888.44;;;17.39;34.14
61554;BME280;47425;51.976;5.326;2023-04-27T12:40:59;101883.97;;;17.41;37.30
61554;BME280;47425;51.976;5.326;2023-04-27T12:43:26;101875.53;;;17.57;33.48
61554;BME280;47425;51.976;5.326;2023-04-27T12:46:14;101875.81;;;17.74;33.64
61554;BME280;47425;51.976;5.326;2023-04-27T12:48:43;101882.94;;;17.45;35.65
61554;BME280;47425;51.976;5.326;2023-04-27T12:51:10;101879.25;;;17.76;37.85
61554;BME280;47425;51.976;5.326;2023-04-27T12:53:37;101875.63;;;18.06;36.55
61554;BME280;47425;51.976;5.326;2023-04-27T12:56:04;101880.22;;;18.26;36.62
61554;BME280;47425;51.976;5.326;2023-04-27T12:58:30;101879.91;;;18.35;35.35
61554;BME280;47425;51.976;5.326;2023-04-27T13:00:57;101873.34;;;18.45;34.86
61554;BME280;47425;51.976;5.326;2023-04-27T13:03:24;101877.31;;;18.08;30.28